Time;durP1;ratioP1;P1;durP2;ratioP2;P2;SDS_P1;SDS_P2;PMS_P1;PMS_P2;Temp;Humidity;BMP_temperature;BMP_pressure;BME280_temperature;BME280_humidity;BME280_pressure;Samples;Min_cycle;Max_cycle;Signal;HPM_P1;HPM_P2
2021/10/08 00:00:43;;;;;;;24.20;18.05;;;;;;;14.34;67.36;102029.09;4920049;28;123842;-63
2021/10/08 00:03:09;;;;;;;21.80;18.40;;;;;;;14.33;67.19;102026.66;4919403;28;120906;-61
2021/10/08 00:05:35;;;;;;;22.65;18.73;;;;;;;14.30;67.35;102029.88;4920503;28;108376;-62
2021/10/08 00:08:02;;;;;;;22.30;17.70;;;;;;;14.28;67.46;102016.56;4918745;28;125400;-62
2021/10/08 00:10:28;;;;;;;23.48;18.95;;;;;;;14.24;67.34;102018.97;4920544;28;98178;-60
2021/10/08 00:12:54;;;;;;;24.23;19.80;;;;;;;14.22;67.27;102023.00;4919012;28;128323;-61
2021/10/08 00:15:20;;;;;;;24.50;18.75;;;;;;;14.21;67.23;102026.78;4919822;28;128373;-60
2021/10/08 00:17:46;;;;;;;22.45;18.95;;;;;;;14.19;67.49;102020.81;4919299;28;113090;-60
2021/10/08 00:20:12;;;;;;;23.17;19.88;;;;;;;14.16;67.35;102026.75;4919609;28;122928;-61
2021/10/08 00:22:38;;;;;;;24.55;20.67;;;;;;;14.14;67.39;102037.00;4919439;28;104933;-60
2021/10/08 00:25:05;;;;;;;24.85;20.45;;;;;;;14.13;67.64;102030.78;4920098;28;117525;-60
2021/10/08 00:27:31;;;;;;;26.80;21.20;;;;;;;14.11;67.63;102035.66;4919599;28;108454;-61
2021/10/08 00:29:57;;;;;;;28.02;21.08;;;;;;;14.11;67.75;102032.09;4919469;28;122051;-62
2021/10/08 00:32:24;;;;;;;27.00;21.65;;;;;;;14.11;67.60;102026.66;4920111;28;98040;-61
2021/10/08 00:34:50;;;;;;;25.65;21.63;;;;;;;14.10;67.61;102031.28;4919641;28;98423;-62
2021/10/08 00:37:16;;;;;;;28.83;21.65;;;;;;;14.09;67.78;102029.63;4919414;28;97847;-60
2021/10/08 00:39:42;;;;;;;25.65;21.48;;;;;;;14.08;67.54;102033.44;4918190;28;97884;-60
2021/10/08 00:42:08;;;;;;;26.10;22.20;;;;;;;14.08;67.76;102024.47;4918850;28;128107;-60
2021/10/08 00:44:34;;;;;;;28.45;21.15;;;;;;;14.05;67.90;102025.78;4920997;28;98530;-60
2021/10/08 00:47:00;;;;;;;26.73;21.48;;;;;;;14.06;68.18;102023.91;4885019;28;117917;-62
2021/10/08 00:49:26;;;;;;;26.58;21.05;;;;;;;14.04;67.99;102024.16;4918338;28;111138;-60
2021/10/08 00:51:52;;;;;;;27.35;21.40;;;;;;;14.04;67.99;102020.63;4919947;28;100045;-62
2021/10/08 00:54:18;;;;;;;29.83;22.52;;;;;;;14.00;68.03;102015.72;4920016;28;98477;-60
2021/10/08 00:56:45;;;;;;;30.10;21.92;;;;;;;13.99;68.07;102016.78;4919647;28;98516;-60
2021/10/08 00:59:11;;;;;;;28.25;21.80;;;;;;;13.98;68.01;102020.56;4918175;28;97836;-61
2021/10/08 01:01:37;;;;;;;25.45;21.17;;;;;;;13.96;68.35;102020.00;4917282;28;112809;-60
2021/10/08 01:04:06;;;;;;;26.17;21.25;;;;;;;13.95;68.32;102017.53;4901277;28;105814;-62
2021/10/08 01:06:32;;;;;;;26.70;21.20;;;;;;;13.93;68.34;102020.50;4919539;28;98608;-60
2021/10/08 01:08:58;;;;;;;27.02;21.15;;;;;;;13.92;68.11;102018.88;4920095;28;98023;-60
2021/10/08 01:11:24;;;;;;;24.55;20.48;;;;;;;13.89;68.46;102013.94;4919126;28;127672;-62
2021/10/08 01:13:50;;;;;;;26.15;20.05;;;;;;;13.86;68.46;102014.44;4918342;28;127916;-62
2021/10/08 01:16:22;;;;;;;25.95;20.83;;;;;;;13.82;68.04;102015.19;4901429;28;100811;-62
2021/10/08 01:18:48;;;;;;;27.13;21.77;;;;;;;13.81;68.46;102014.38;4901425;28;97944;-62
2021/10/08 01:21:14;;;;;;;24.88;20.10;;;;;;;13.80;68.44;102023.59;4918796;28;127501;-60
2021/10/08 01:23:40;;;;;;;26.02;21.33;;;;;;;13.78;68.83;102019.50;4918297;28;127400;-61
2021/10/08 01:26:06;;;;;;;29.42;21.85;;;;;;;13.74;68.49;102022.69;4918265;28;126960;-62
2021/10/08 01:28:32;;;;;;;27.52;21.77;;;;;;;13.72;68.88;102024.03;4916969;28;124226;-60
2021/10/08 01:30:58;;;;;;;27.42;22.25;;;;;;;13.70;68.84;102026.16;4919214;28;110423;-63
2021/10/08 01:33:24;;;;;;;27.75;22.33;;;;;;;13.68;68.73;102025.59;4900617;28;127163;-60
2021/10/08 01:35:50;;;;;;;31.10;23.17;;;;;;;13.67;68.56;102026.66;4916825;28;126057;-60
2021/10/08 01:38:16;;;;;;;28.70;22.63;;;;;;;13.64;68.74;102029.88;4916514;28;122017;-60
2021/10/08 01:40:42;;;;;;;28.77;22.90;;;;;;;13.61;68.59;102027.66;4916687;28;125964;-60
2021/10/08 01:43:08;;;;;;;28.63;23.45;;;;;;;13.59;68.73;102027.09;4917709;28;127846;-60
2021/10/08 01:45:34;;;;;;;31.63;23.45;;;;;;;13.57;68.78;102029.25;4918805;28;127624;-61
2021/10/08 01:48:00;;;;;;;31.13;23.25;;;;;;;13.56;68.76;102027.59;4903425;28;120943;-62
2021/10/08 01:50:26;;;;;;;31.77;24.63;;;;;;;13.53;68.80;102026.22;4904104;28;126084;-60
2021/10/08 01:52:52;;;;;;;33.13;25.05;;;;;;;13.53;68.49;102028.09;4922718;28;98885;-62
2021/10/08 01:55:19;;;;;;;37.00;25.42;;;;;;;13.50;68.57;102027.50;4921164;28;99596;-60
2021/10/08 01:57:45;;;;;;;33.67;25.35;;;;;;;13.48;68.94;102026.16;4922090;28;107841;-62
2021/10/08 02:00:11;;;;;;;34.50;24.83;;;;;;;13.47;68.85;102028.00;4922294;28;120408;-60
2021/10/08 02:02:37;;;;;;;39.28;26.10;;;;;;;13.45;68.72;102032.88;4920458;28;119376;-62
2021/10/08 02:05:04;;;;;;;39.60;28.27;;;;;;;13.43;68.69;102040.41;4921292;28;128882;-60
2021/10/08 02:07:30;;;;;;;34.60;26.55;;;;;;;13.40;68.50;102029.25;4922489;28;98010;-63
2021/10/08 02:09:56;;;;;;;38.72;27.23;;;;;;;13.39;68.80;102038.44;4922219;28;98383;-60
2021/10/08 02:12:23;;;;;;;35.53;26.27;;;;;;;13.37;68.57;102046.03;4919321;28;127846;-60
2021/10/08 02:14:49;;;;;;;38.85;27.48;;;;;;;13.35;68.82;102048.13;4922758;28;98288;-60
2021/10/08 02:17:15;;;;;;;37.97;26.42;;;;;;;13.35;68.43;102048.13;4919219;28;123213;-60
2021/10/08 02:19:41;;;;;;;39.70;27.48;;;;;;;13.34;68.74;102041.91;4902975;28;122922;-63
2021/10/08 02:22:07;;;;;;;39.70;26.73;;;;;;;13.33;68.24;102042.16;4921864;28;98776;-60
2021/10/08 02:24:33;;;;;;;41.10;28.52;;;;;;;13.31;68.45;102036.97;4922565;28;98105;-61
2021/10/08 02:26:59;;;;;;;38.90;27.77;;;;;;;13.33;68.63;102044.88;4920597;28;120703;-60
2021/10/08 02:29:26;;;;;;;43.85;28.60;;;;;;;13.32;68.49;102046.72;4921445;28;98744;-62
2021/10/08 02:31:53;;;;;;;40.30;27.73;;;;;;;13.32;68.50;102052.16;4921671;28;127737;-61
2021/10/08 02:34:19;;;;;;;42.25;28.38;;;;;;;13.30;68.50;102040.75;4921578;28;97760;-61
2021/10/08 02:36:45;;;;;;;41.85;28.23;;;;;;;13.29;68.37;102046.44;4920569;28;110434;-60
2021/10/08 02:39:11;;;;;;;41.95;27.27;;;;;;;13.28;68.36;102048.28;4921854;28;99379;-60
2021/10/08 02:41:37;;;;;;;41.33;28.45;;;;;;;13.29;68.45;102049.97;4902909;28;127869;-60
2021/10/08 02:44:04;;;;;;;43.70;29.25;;;;;;;13.29;68.52;102049.16;4918826;28;127557;-62
2021/10/08 02:46:30;;;;;;;45.15;30.23;;;;;;;13.28;68.45;102059.13;4921943;28;122685;-60
2021/10/08 02:48:56;;;;;;;44.60;29.77;;;;;;;13.26;68.39;102053.16;4918490;28;125567;-61
2021/10/08 02:51:22;;;;;;;44.42;29.27;;;;;;;13.26;68.51;102061.28;4903968;28;98271;-62
2021/10/08 02:53:48;;;;;;;47.03;30.23;;;;;;;13.25;68.53;102060.47;4921294;28;119879;-60
2021/10/08 02:56:14;;;;;;;46.53;30.00;;;;;;;13.24;68.46;102068.81;4918589;28;122739;-60
2021/10/08 02:58:40;;;;;;;46.08;30.33;;;;;;;13.22;68.43;102060.09;4920820;28;127892;-62
2021/10/08 03:01:06;;;;;;;43.90;29.67;;;;;;;13.21;68.40;102066.59;4919970;28;98489;-62
2021/10/08 03:03:32;;;;;;;42.53;30.08;;;;;;;13.20;68.50;102067.63;4919788;28;125744;-62
2021/10/08 03:05:58;;;;;;;47.92;30.33;;;;;;;13.20;68.60;102065.78;4921476;28;97848;-60
2021/10/08 03:08:25;;;;;;;46.40;29.88;;;;;;;13.18;68.59;102064.38;4920210;28;128818;-60
2021/10/08 03:10:51;;;;;;;44.92;30.80;;;;;;;13.18;68.54;102065.19;4921558;28;98345;-60
2021/10/08 03:13:17;;;;;;;44.03;30.17;;;;;;;13.18;68.53;102067.06;4919933;28;127222;-61
2021/10/08 03:15:43;;;;;;;44.60;30.15;;;;;;;13.16;68.74;102071.91;4919146;28;121814;-61
2021/10/08 03:18:09;;;;;;;42.85;29.15;;;;;;;13.15;68.95;102072.97;4919976;28;128160;-61
2021/10/08 03:20:35;;;;;;;46.80;30.08;;;;;;;13.15;68.74;102076.50;4921221;28;128207;-61
2021/10/08 03:23:01;;;;;;;43.60;30.20;;;;;;;13.14;68.82;102072.16;4919658;28;128274;-62
2021/10/08 03:25:27;;;;;;;44.85;30.25;;;;;;;13.15;68.83;102075.69;4921357;28;97743;-61
2021/10/08 03:27:53;;;;;;;43.53;30.13;;;;;;;13.14;68.84;102072.16;4920376;28;128123;-61
2021/10/08 03:30:19;;;;;;;42.92;29.73;;;;;;;13.14;68.74;102076.75;4920732;28;126066;-60
2021/10/08 03:32:45;;;;;;;44.13;28.63;;;;;;;13.13;68.81;102070.53;4919231;28;126318;-60
2021/10/08 03:35:12;;;;;;;42.58;29.52;;;;;;;13.14;68.75;102074.06;4918849;28;121701;-60
2021/10/08 03:37:52;;;;;;;43.40;29.60;;;;;;;13.16;68.62;102064.59;4885892;28;99081;-61
2021/10/08 03:40:24;;;;;;;41.65;29.25;;;;;;;13.22;68.91;102058.22;4920746;28;99530;-60
2021/10/08 03:42:50;;;;;;;44.87;29.53;;;;;;;13.30;68.65;102075.16;4920048;28;99686;-60
2021/10/08 03:45:17;;;;;;;42.17;28.88;;;;;;;13.35;68.62;102067.91;4921354;28;98008;-61
2021/10/08 03:50:28;;;;;;;40.88;29.17;;;;;;;13.40;68.16;102062.59;4917781;28;97902;-60
2021/10/08 03:52:54;;;;;;;40.60;27.73;;;;;;;13.43;68.33;102064.78;4919118;28;125513;-61
2021/10/08 03:55:20;;;;;;;40.60;28.83;;;;;;;13.45;68.24;102073.50;4921539;28;98112;-59
2021/10/08 03:57:46;;;;;;;41.40;29.13;;;;;;;13.47;68.24;102074.06;4923158;28;126584;-61
2021/10/08 04:00:12;;;;;;;39.85;28.38;;;;;;;13.48;68.08;102077.63;4919951;28;128698;-60
2021/10/08 04:02:38;;;;;;;39.47;27.13;;;;;;;13.49;68.22;102073.81;4919638;28;115114;-60
2021/10/08 04:05:05;;;;;;;40.65;28.65;;;;;;;13.49;67.87;102073.81;4919745;28;122397;-60
2021/10/08 04:07:31;;;;;;;40.35;28.73;;;;;;;13.51;68.00;102074.38;4920487;28;98401;-61
2021/10/08 04:09:57;;;;;;;39.83;27.10;;;;;;;13.51;67.84;102080.63;4919922;28;98955;-60
2021/10/08 04:12:23;;;;;;;39.40;27.67;;;;;;;13.52;68.04;102078.75;4917458;28;106867;-61
2021/10/08 04:14:49;;;;;;;37.90;27.10;;;;;;;13.53;67.98;102085.00;4918380;28;122517;-63
2021/10/08 04:17:15;;;;;;;41.97;27.70;;;;;;;13.51;67.70;102091.47;4919232;28;127505;-60
2021/10/08 04:19:41;;;;;;;40.17;27.98;;;;;;;13.51;67.72;102082.50;4919928;28;127565;-60
2021/10/08 04:22:07;;;;;;;37.30;28.13;;;;;;;13.50;67.69;102083.59;4918980;28;127865;-61
2021/10/08 04:24:33;;;;;;;38.85;28.85;;;;;;;13.49;67.78;102090.09;4919821;28;122330;-60
2021/10/08 04:26:59;;;;;;;44.42;27.92;;;;;;;13.50;67.62;102089.81;4918774;28;126045;-61
2021/10/08 04:29:25;;;;;;;40.53;27.83;;;;;;;13.49;67.64;102090.91;4919693;28;127910;-60
2021/10/08 04:31:51;;;;;;;38.47;27.58;;;;;;;13.49;67.65;102090.91;4919468;28;126474;-60
2021/10/08 04:34:17;;;;;;;36.28;26.30;;;;;;;13.49;67.91;102104.44;4916719;28;118385;-60
2021/10/08 04:36:43;;;;;;;37.75;26.38;;;;;;;13.49;67.53;102093.59;4917150;28;127114;-60
2021/10/08 04:39:09;;;;;;;36.05;26.73;;;;;;;13.48;67.67;102102.81;4919272;28;128246;-61
2021/10/08 04:41:36;;;;;;;37.95;27.17;;;;;;;13.47;67.83;102103.03;4920250;28;97821;-61
2021/10/08 04:44:02;;;;;;;38.85;26.42;;;;;;;13.44;67.56;102101.66;4919162;28;123400;-61
2021/10/08 04:46:28;;;;;;;34.58;26.70;;;;;;;13.42;67.94;102109.19;4919808;28;128389;-62
2021/10/08 04:48:54;;;;;;;38.38;27.10;;;;;;;13.41;67.52;102115.69;4900472;28;127863;-61
2021/10/08 04:51:20;;;;;;;37.22;26.48;;;;;;;13.40;67.58;102110.50;4918993;28;127721;-60
2021/10/08 04:53:46;;;;;;;35.83;27.50;;;;;;;13.38;67.88;102110.75;4919282;28;117311;-63
2021/10/08 04:56:12;;;;;;;37.33;27.42;;;;;;;13.37;67.86;102109.13;4900647;28;127557;-61
2021/10/08 04:58:38;;;;;;;36.83;26.27;;;;;;;13.38;67.95;102116.19;4919428;28;120856;-63
2021/10/08 05:01:04;;;;;;;35.72;26.35;;;;;;;13.36;68.10;102115.63;4919151;28;127884;-62
2021/10/08 05:03:30;;;;;;;35.65;26.90;;;;;;;13.37;67.85;102119.97;4920115;28;103659;-60
2021/10/08 05:05:56;;;;;;;38.85;26.67;;;;;;;13.35;67.75;102113.94;4916959;28;128399;-60
2021/10/08 05:08:22;;;;;;;40.38;26.55;;;;;;;13.35;67.87;102111.25;4919733;28;98538;-62
2021/10/08 05:10:48;;;;;;;37.15;26.27;;;;;;;13.35;68.06;102115.84;4917823;28;100262;-60
2021/10/08 05:13:15;;;;;;;32.50;25.50;;;;;;;13.35;68.05;102115.84;4919078;28;98137;-61
2021/10/08 05:15:41;;;;;;;33.25;26.35;;;;;;;13.33;67.63;102116.09;4868937;28;105672;-60
2021/10/08 05:18:07;;;;;;;35.47;26.60;;;;;;;13.31;68.02;102117.41;4919304;28;111018;-61
2021/10/08 05:20:33;;;;;;;36.47;26.35;;;;;;;13.31;68.05;102134.47;4920302;28;110611;-62
2021/10/08 05:22:59;;;;;;;39.10;27.58;;;;;;;13.29;67.86;102120.38;4922770;28;111385;-62
2021/10/08 05:25:26;;;;;;;35.58;27.80;;;;;;;13.27;68.17;102122.50;4921609;28;98213;-62
2021/10/08 05:27:52;;;;;;;36.70;26.95;;;;;;;13.27;68.10;102130.63;4919769;28;127773;-60
2021/10/08 05:30:18;;;;;;;34.58;26.52;;;;;;;13.25;68.24;102127.34;4922198;28;116312;-60
2021/10/08 05:32:44;;;;;;;36.47;27.77;;;;;;;13.23;68.22;102130.28;4921501;28;124051;-60
2021/10/08 05:35:11;;;;;;;33.50;26.40;;;;;;;13.24;67.81;102129.22;4905028;28;98628;-60
2021/10/08 05:37:37;;;;;;;36.30;26.15;;;;;;;13.24;67.86;102129.22;4922306;28;104161;-60
2021/10/08 05:40:04;;;;;;;33.67;26.48;;;;;;;13.23;68.17;102135.69;4921701;28;128091;-63
2021/10/08 05:42:30;;;;;;;37.67;27.95;;;;;;;13.24;68.08;102134.66;4919782;28;115320;-62
2021/10/08 05:44:59;;;;;;;37.05;28.30;;;;;;;13.23;67.95;102137.59;4921405;28;125998;-60
2021/10/08 05:47:25;;;;;;;37.85;28.15;;;;;;;13.20;67.93;102136.19;4921745;28;100438;-60
2021/10/08 05:49:51;;;;;;;39.75;27.58;;;;;;;13.20;68.53;102143.44;4922853;28;98218;-60
2021/10/08 05:52:17;;;;;;;36.25;27.45;;;;;;;13.20;68.06;102149.72;4922224;28;98206;-60
2021/10/08 05:54:43;;;;;;;36.70;27.15;;;;;;;13.22;68.00;102157.59;4922337;28;107975;-61
2021/10/08 05:57:09;;;;;;;37.42;26.60;;;;;;;13.22;67.79;102152.97;4902976;28;127400;-60
2021/10/08 05:59:35;;;;;;;37.40;26.65;;;;;;;13.24;67.87;102158.19;4922289;28;98325;-60
2021/10/08 06:02:02;;;;;;;38.33;26.88;;;;;;;13.25;67.65;102151.72;4921641;28;97895;-60
2021/10/08 06:04:28;;;;;;;35.08;25.40;;;;;;;13.29;67.81;102154.75;4922539;28;111108;-61
2021/10/08 06:06:54;;;;;;;33.95;25.88;;;;;;;13.33;67.77;102159.44;4921558;28;98507;-62
2021/10/08 06:09:20;;;;;;;35.15;25.65;;;;;;;13.37;67.70;102159.78;4921960;28;119745;-62
2021/10/08 06:11:46;;;;;;;35.10;25.98;;;;;;;13.41;67.41;102155.50;4921456;28;122994;-62
2021/10/08 06:14:12;;;;;;;32.58;25.98;;;;;;;13.44;67.29;102161.25;4921846;28;128060;-61
2021/10/08 06:16:38;;;;;;;34.13;25.77;;;;;;;13.49;67.36;102163.22;4922229;28;101236;-62
2021/10/08 06:19:04;;;;;;;35.95;25.70;;;;;;;13.51;67.14;102152.94;4920561;28;129144;-60
2021/10/08 06:21:30;;;;;;;35.03;26.38;;;;;;;13.58;67.10;102164.44;4920701;28;123694;-62
2021/10/08 06:23:56;;;;;;;34.45;25.33;;;;;;;13.60;67.09;102161.50;4920762;28;128297;-60
2021/10/08 06:26:22;;;;;;;35.63;26.70;;;;;;;13.61;67.20;102165.84;4920339;28;127974;-63
2021/10/08 06:28:49;;;;;;;34.17;26.13;;;;;;;13.59;66.77;102168.78;4921345;28;128095;-60
2021/10/08 06:31:15;;;;;;;37.22;26.35;;;;;;;13.61;67.05;102169.38;4871766;28;98444;-60
2021/10/08 06:33:41;;;;;;;32.90;25.65;;;;;;;13.67;67.07;102168.38;4921239;28;121649;-61
2021/10/08 06:36:07;;;;;;;34.78;26.65;;;;;;;13.74;67.00;102170.94;4922987;28;97899;-63
2021/10/08 06:38:33;;;;;;;32.20;26.17;;;;;;;13.83;66.41;102177.56;4920809;28;126529;-60
2021/10/08 06:40:59;;;;;;;35.45;26.02;;;;;;;13.90;65.99;102169.25;4921635;28;101628;-62
2021/10/08 06:43:25;;;;;;;33.10;26.33;;;;;;;14.02;66.06;102175.41;4919091;28;127043;-60
2021/10/08 06:45:51;;;;;;;36.95;28.67;;;;;;;14.14;65.60;102173.41;4902370;28;127284;-60
2021/10/08 06:48:17;;;;;;;37.03;27.60;;;;;;;14.25;65.13;102177.09;4919660;28;99200;-62
2021/10/08 06:50:43;;;;;;;35.38;28.73;;;;;;;14.42;64.77;102175.16;4921405;28;123489;-60
2021/10/08 06:53:09;;;;;;;38.72;28.27;;;;;;;14.51;63.97;102177.47;4918376;28;126129;-60
2021/10/08 06:55:36;;;;;;;37.10;28.63;;;;;;;14.56;63.54;102177.53;4904136;28;98946;-60
2021/10/08 06:58:03;;;;;;;35.75;27.52;;;;;;;14.61;63.51;102172.16;4921210;28;98405;-60
2021/10/08 07:00:29;;;;;;;35.78;28.48;;;;;;;14.72;62.94;102177.44;4921199;28;97844;-62
2021/10/08 07:02:57;;;;;;;37.50;28.50;;;;;;;14.83;62.66;102181.09;4919351;28;128871;-61
2021/10/08 07:05:24;;;;;;;36.03;29.10;;;;;;;14.98;62.76;102178.56;4921616;28;98600;-62
2021/10/08 07:07:51;;;;;;;34.90;29.23;;;;;;;15.10;62.03;102178.41;4920880;28;98052;-62
2021/10/08 07:10:17;;;;;;;35.03;27.50;;;;;;;15.31;61.38;102184.84;4921377;28;97791;-62
2021/10/08 07:12:43;;;;;;;36.80;27.98;;;;;;;15.27;61.81;102189.16;4920474;28;98883;-60
2021/10/08 07:15:16;;;;;;;38.92;29.95;;;;;;;15.26;61.49;102194.84;4921316;28;98291;-60
2021/10/08 07:17:50;;;;;;;34.40;28.08;;;;;;;15.25;61.86;102199.47;4921325;28;97945;-62
2021/10/08 07:20:22;;;;;;;38.90;30.38;;;;;;;15.24;61.74;102200.53;4921186;28;97888;-60
2021/10/08 07:22:48;;;;;;;36.05;28.77;;;;;;;15.21;60.98;102196.44;4920260;28;105899;-63
2021/10/08 07:25:14;;;;;;;36.85;29.60;;;;;;;15.18;61.43;102182.56;4918591;28;102058;-62
2021/10/08 07:27:41;;;;;;;35.92;29.15;;;;;;;15.18;61.01;102190.72;4920064;28;127292;-62
2021/10/08 07:30:08;;;;;;;36.95;29.58;;;;;;;15.20;61.18;102185.81;4903167;28;97793;-60
2021/10/08 07:32:35;;;;;;;35.88;29.08;;;;;;;15.26;61.16;102192.13;4920515;28;98944;-62
2021/10/08 07:35:02;;;;;;;35.97;28.38;;;;;;;15.33;60.97;102188.13;4920601;28;99187;-60
2021/10/08 07:37:28;;;;;;;35.58;29.45;;;;;;;15.43;60.74;102196.38;4920575;28;109066;-62
2021/10/08 07:39:54;;;;;;;35.58;29.63;;;;;;;15.53;60.49;102197.56;4919382;28;113671;-61
2021/10/08 07:42:21;;;;;;;37.17;28.85;;;;;;;15.67;60.48;102196.88;4919346;28;98317;-61
2021/10/08 07:44:48;;;;;;;36.97;29.25;;;;;;;15.88;59.62;102203.28;4920045;28;99003;-60
2021/10/08 07:47:15;;;;;;;34.33;29.60;;;;;;;16.11;59.16;102209.41;4919864;28;118631;-62
2021/10/08 07:49:41;;;;;;;35.10;28.20;;;;;;;16.29;58.54;102206.25;4901861;28;97843;-60
2021/10/08 07:52:07;;;;;;;34.35;29.10;;;;;;;16.48;58.15;102220.25;4913100;28;127082;-62
2021/10/08 07:54:33;;;;;;;33.75;28.45;;;;;;;16.72;57.75;102215.19;4920864;28;98481;-62
2021/10/08 07:57:00;;;;;;;36.65;28.48;;;;;;;17.08;56.97;102220.75;4918766;28;126342;-63
2021/10/08 07:59:26;;;;;;;37.42;30.25;;;;;;;17.48;55.51;102220.00;4920013;28;123449;-60
2021/10/08 08:01:52;;;;;;;34.15;28.77;;;;;;;17.47;55.66;102215.66;4919202;28;126955;-62
2021/10/08 08:04:30;;;;;;;39.03;29.40;;;;;;;18.36;53.82;102232.50;5000709;27;97759;-60
2021/10/08 08:06:56;;;;;;;37.33;30.30;;;;;;;18.51;53.28;102232.47;4977579;28;98241;-60
2021/10/08 08:09:22;;;;;;;38.30;28.90;;;;;;;18.39;53.37;102221.88;4980908;28;126040;-60
2021/10/08 08:11:49;;;;;;;37.85;29.77;;;;;;;18.73;52.84;102231.31;4953248;28;126607;-60
2021/10/08 08:14:15;;;;;;;34.70;28.67;;;;;;;19.32;51.54;102230.44;4977767;28;97787;-60
2021/10/08 08:16:41;;;;;;;35.80;29.38;;;;;;;20.37;48.94;102226.25;4958921;28;113601;-60
2021/10/08 08:19:08;;;;;;;34.90;30.25;;;;;;;22.37;45.32;102230.38;4974264;28;128054;-60
2021/10/08 08:21:34;;;;;;;33.47;28.70;;;;;;;24.28;41.65;102234.69;4978953;28;98824;-61
2021/10/08 08:24:00;;;;;;;31.55;27.60;;;;;;;27.81;36.35;102243.41;4976443;28;97979;-61
2021/10/08 08:26:26;;;;;;;30.40;27.10;;;;;;;30.26;32.46;102255.94;4959517;28;113653;-61
2021/10/08 08:28:52;;;;;;;30.23;26.10;;;;;;;32.29;30.12;102261.38;4975087;28;102815;-61
2021/10/08 08:31:18;;;;;;;28.80;25.90;;;;;;;34.22;27.95;102259.00;4976472;28;128070;-62
2021/10/08 08:33:44;;;;;;;29.27;26.17;;;;;;;35.71;26.24;102246.97;4977711;28;106082;-62
2021/10/08 08:36:10;;;;;;;28.92;26.08;;;;;;;36.91;24.89;102249.28;4977176;28;113437;-62
2021/10/08 08:38:37;;;;;;;28.17;25.27;;;;;;;37.70;23.49;102244.88;4972348;28;97941;-63
2021/10/08 08:41:03;;;;;;;27.42;24.52;;;;;;;38.31;22.96;102235.91;4957579;28;99140;-63
2021/10/08 08:43:29;;;;;;;27.52;24.83;;;;;;;38.10;23.35;102224.88;4957625;28;126967;-63
2021/10/08 08:45:56;;;;;;;27.73;24.83;;;;;;;37.09;24.23;102219.13;4957501;28;97865;-63
2021/10/08 08:48:22;;;;;;;26.25;23.60;;;;;;;37.76;23.00;102215.06;4956798;28;112514;-62
2021/10/08 08:50:48;;;;;;;24.92;22.60;;;;;;;39.23;21.41;102219.19;4955338;28;115848;-62
2021/10/08 08:53:17;;;;;;;25.10;22.63;;;;;;;40.18;20.56;102215.25;4957441;28;98427;-61
2021/10/08 08:55:43;;;;;;;25.30;22.80;;;;;;;40.84;19.49;102211.53;4957919;28;97964;-62
2021/10/08 08:58:09;;;;;;;24.98;22.27;;;;;;;41.19;19.38;102201.50;4955858;28;129002;-61
2021/10/08 09:00:35;;;;;;;24.17;21.63;;;;;;;41.59;19.01;102200.59;4965410;28;124984;-61
2021/10/08 09:03:04;;;;;;;23.48;21.17;;;;;;;41.71;18.68;102199.06;4958556;28;98389;-62
2021/10/08 09:05:35;;;;;;;22.23;20.05;;;;;;;41.08;19.71;102188.84;4939729;28;97956;-63
2021/10/08 09:08:08;;;;;;;23.02;20.58;;;;;;;39.26;21.31;102185.31;4954951;28;121152;-61
2021/10/08 09:10:36;;;;;;;20.85;18.67;;;;;;;39.17;19.88;102173.72;4976874;28;99026;-62
2021/10/08 09:13:03;;;;;;;21.13;19.00;;;;;;;40.39;19.17;102183.78;4976313;28;102099;-62
2021/10/08 09:15:50;;;;;;;20.80;17.92;;;;;;;40.95;18.46;102180.19;4965372;28;104619;-63
2021/10/08 09:18:21;;;;;;;19.60;17.60;;;;;;;40.31;18.76;102176.69;4948407;28;98650;-62
2021/10/08 09:21:12;;;;;;;19.73;17.63;;;;;;;39.19;20.08;102162.06;4962871;28;98501;-62
2021/10/08 09:23:47;;;;;;;20.80;18.63;;;;;;;39.36;19.25;102161.00;4963702;28;98194;-63
2021/10/08 09:26:18;;;;;;;19.83;17.70;;;;;;;38.46;19.74;102166.22;4963818;28;98019;-62
2021/10/08 09:29:08;;;;;;;22.85;17.80;;;;;;;38.44;20.62;102155.38;4963069;28;98488;-61
2021/10/08 09:31:37;;;;;;;21.05;18.23;;;;;;;38.01;20.11;102160.66;4944620;28;98448;-61
2021/10/08 09:34:21;;;;;;;20.27;17.95;;;;;;;35.84;22.25;102152.84;4943844;28;97887;-63
2021/10/08 09:37:03;;;;;;;21.15;18.73;;;;;;;35.53;22.54;102153.63;4944209;28;97830;-61
2021/10/08 09:39:33;;;;;;;24.10;18.88;;;;;;;35.58;22.08;102154.03;4928411;28;98529;-65
2021/10/08 09:42:02;;;;;;;24.67;19.42;;;;;;;36.97;21.08;102157.78;4944512;28;99229;-61
2021/10/08 09:44:29;;;;;;;22.08;19.35;;;;;;;37.98;19.96;102161.47;4945352;28;98102;-61
2021/10/08 09:47:09;;;;;;;26.73;20.33;;;;;;;39.12;19.36;102160.13;4926100;28;100693;-61
2021/10/08 09:49:35;;;;;;;23.65;19.42;;;;;;;38.00;19.71;102159.84;4926910;28;98004;-61
2021/10/08 09:52:28;;;;;;;22.65;19.02;;;;;;;37.80;20.46;102147.53;4941145;28;98747;-63
2021/10/08 09:55:00;;;;;;;29.95;19.20;;;;;;;37.37;20.44;102152.69;4938442;28;98304;-63
2021/10/08 09:57:26;;;;;;;23.35;17.38;;;;;;;36.92;20.52;102144.94;4962378;28;100782;-63
2021/10/08 09:59:53;;;;;;;21.08;16.92;;;;;;;36.82;20.03;102146.56;4955558;28;98913;-61
2021/10/08 10:02:19;;;;;;;20.70;17.30;;;;;;;37.91;19.25;102150.28;4948355;28;100862;-61
2021/10/08 10:04:56;;;;;;;23.00;16.33;;;;;;;38.43;19.51;102147.34;4955280;28;98186;-61
2021/10/08 10:07:23;;;;;;;25.48;17.38;;;;;;;38.01;18.99;102149.41;4943084;28;98029;-64
2021/10/08 10:09:50;;;;;;;21.77;16.48;;;;;;;38.13;18.73;102148.88;4949983;28;99238;-61
2021/10/08 10:12:19;;;;;;;21.40;16.30;;;;;;;38.02;19.02;102136.94;4961555;28;121580;-63
2021/10/08 10:14:46;;;;;;;22.98;15.80;;;;;;;37.66;19.31;102140.06;4963122;28;102944;-63
2021/10/08 10:17:13;;;;;;;19.92;15.32;;;;;;;36.96;19.48;102131.69;4962912;28;98009;-61
2021/10/08 10:19:45;;;;;;;20.27;14.63;;;;;;;35.97;20.69;102124.38;4962435;28;113679;-63
2021/10/08 10:22:18;;;;;;;19.38;14.15;;;;;;;34.50;21.81;102123.31;4961845;28;99124;-63
2021/10/08 10:24:46;;;;;;;20.67;13.57;;;;;;;33.03;22.84;102112.91;4955441;28;97792;-63
2021/10/08 10:27:15;;;;;;;18.10;11.30;;;;;;;32.04;23.10;102118.78;4941621;28;98096;-63
2021/10/08 10:29:42;;;;;;;16.77;9.95;;;;;;;31.34;23.64;102114.41;4915112;28;98198;-62
2021/10/08 10:32:08;;;;;;;17.98;10.18;;;;;;;30.85;24.21;102103.88;4941905;28;102908;-61
2021/10/08 10:34:36;;;;;;;17.50;10.38;;;;;;;30.40;24.76;102108.09;4939998;28;127481;-61
2021/10/08 10:37:02;;;;;;;19.63;10.05;;;;;;;29.95;24.89;102106.66;4951145;28;98184;-61
2021/10/08 10:39:28;;;;;;;20.08;9.32;;;;;;;29.48;24.93;102113.03;4958845;28;98452;-63
2021/10/08 10:42:01;;;;;;;18.92;8.85;;;;;;;28.97;24.75;102115.59;4955156;28;118172;-61
2021/10/08 10:44:48;;;;;;;12.63;8.10;;;;;;;28.50;24.76;102114.25;4943312;28;98409;-61
2021/10/08 10:47:29;;;;;;;15.68;8.35;;;;;;;28.00;25.01;102104.34;4944007;28;97803;-61
2021/10/08 10:50:14;;;;;;;20.20;8.48;;;;;;;27.68;26.24;102108.81;4943782;28;98521;-63
2021/10/08 10:52:55;;;;;;;16.50;9.18;;;;;;;27.36;26.35;102103.00;4942899;28;98519;-61
2021/10/08 10:55:22;;;;;;;21.35;9.70;;;;;;;27.13;26.74;102110.09;4943310;28;98327;-61
2021/10/08 10:57:57;;;;;;;17.55;8.88;;;;;;;26.91;26.98;102105.69;4947624;28;97831;-63
2021/10/08 11:00:34;;;;;;;17.83;8.93;;;;;;;26.66;26.83;102107.53;4960726;28;98484;-61
2021/10/08 11:03:14;;;;;;;16.08;8.50;;;;;;;26.46;27.26;102106.41;4960451;28;98819;-61
2021/10/08 11:06:08;;;;;;;21.20;8.40;;;;;;;26.32;27.22;102111.34;4962695;28;98036;-63
2021/10/08 11:08:57;;;;;;;16.48;8.40;;;;;;;26.16;27.19;102111.09;4961887;28;97992;-63